Time;durP1;ratioP1;P1;durP2;ratioP2;P2;SDS_P1;SDS_P2;PMS_P1;PMS_P2;Temp;Humidity;BMP_temperature;BMP_pressure;BME280_temperature;BME280_humidity;BME280_pressure;Samples;Min_cycle;Max_cycle;Signal;HPM_P1;HPM_P2
2024/02/23 00:00:11;;;;;;;31.27;15.80;;;;;;;0.40;100.00;99703.09;5018852;28;20042;-75
2024/02/23 00:02:37;;;;;;;32.53;16.70;;;;;;;0.37;100.00;99700.66;5017056;28;20046;-72
2024/02/23 00:05:04;;;;;;;30.93;16.03;;;;;;;0.37;100.00;99690.22;5032521;28;20041;-74
2024/02/23 00:07:31;;;;;;;32.63;16.57;;;;;;;0.38;100.00;99704.94;5032750;28;20049;-73
2024/02/23 00:09:57;;;;;;;34.80;17.30;;;;;;;0.34;100.00;99709.50;5017427;28;20037;-73
2024/02/23 00:12:23;;;;;;;31.30;16.73;;;;;;;0.34;100.00;99708.69;4983663;28;20103;-73
2024/02/23 00:14:50;;;;;;;35.37;17.33;;;;;;;0.19;100.00;99699.13;4999339;28;20045;-74
2024/02/23 00:17:18;;;;;;;37.93;18.00;;;;;;;0.29;100.00;99690.69;5015969;28;20067;-73
2024/02/23 00:19:47;;;;;;;28.33;15.37;;;;;;;0.38;100.00;99694.50;5015843;28;20049;-73
2024/02/23 00:22:13;;;;;;;32.53;16.60;;;;;;;0.25;100.00;99702.22;5030986;28;20144;-73
2024/02/23 00:24:40;;;;;;;37.23;18.10;;;;;;;0.25;100.00;99698.81;5014483;28;20052;-73
2024/02/23 00:27:06;;;;;;;30.37;15.93;;;;;;;0.35;100.00;99681.63;5015565;28;20053;-74
2024/02/23 00:29:32;;;;;;;31.23;15.40;;;;;;;0.31;100.00;99690.59;4989620;28;20119;-74
2024/02/23 00:31:58;;;;;;;32.90;16.37;;;;;;;0.39;100.00;99691.78;5039792;28;20048;-73
2024/02/23 00:34:24;;;;;;;31.77;16.07;;;;;;;0.37;100.00;99701.47;5011512;28;20059;-74
2024/02/23 00:36:50;;;;;;;29.73;15.33;;;;;;;0.37;100.00;99701.47;5037414;28;20052;-74
2024/02/23 00:39:15;;;;;;;30.53;15.03;;;;;;;0.38;100.00;99703.19;4983056;28;20143;-74
2024/02/23 00:41:42;;;;;;;34.23;17.63;;;;;;;0.36;100.00;99706.78;5031631;28;20080;-74
2024/02/23 00:44:08;;;;;;;29.07;15.77;;;;;;;0.38;100.00;99694.50;4998871;28;20430;-74
2024/02/23 00:46:34;;;;;;;29.80;15.03;;;;;;;0.43;100.00;99685.44;5015110;28;20063;-73
2024/02/23 00:49:00;;;;;;;29.97;15.23;;;;;;;0.41;100.00;99684.72;4999075;28;20079;-73
2024/02/23 00:51:25;;;;;;;31.73;14.70;;;;;;;0.45;100.00;99686.19;4998868;28;20084;-73
2024/02/23 00:53:52;;;;;;;29.10;13.73;;;;;;;0.53;100.00;99694.41;5016385;28;20049;-73
2024/02/23 00:56:18;;;;;;;30.53;15.60;;;;;;;0.47;100.00;99693.94;5016991;28;20061;-74
2024/02/23 00:58:43;;;;;;;28.77;14.03;;;;;;;0.51;100.00;99705.91;5017280;28;20623;-74
2024/02/23 01:01:09;;;;;;;33.00;16.83;;;;;;;0.37;100.00;99687.59;5003673;28;20052;-75
2024/02/23 01:03:35;;;;;;;28.57;14.73;;;;;;;0.48;100.00;99704.28;5020428;28;20047;-74
2024/02/23 01:06:01;;;;;;;32.00;15.53;;;;;;;0.50;100.00;99707.66;5020470;28;20040;-73
2024/02/23 01:08:28;;;;;;;27.00;13.80;;;;;;;0.55;100.00;99710.00;5036693;28;20052;-73
2024/02/23 01:10:53;;;;;;;29.17;15.13;;;;;;;0.54;100.00;99709.13;5053680;28;20059;-72
2024/02/23 01:13:19;;;;;;;28.97;13.73;;;;;;;0.60;100.00;99713.16;5002303;28;20045;-72
2024/02/23 01:15:45;;;;;;;25.27;13.37;;;;;;;0.58;100.00;99705.41;4982891;28;20037;-72
2024/02/23 01:18:11;;;;;;;25.53;13.17;;;;;;;0.62;100.00;99704.28;4998092;28;20045;-73
2024/02/23 01:20:37;;;;;;;26.67;13.83;;;;;;;0.61;100.00;99707.00;4998113;28;20127;-72
2024/02/23 01:23:03;;;;;;;28.63;14.00;;;;;;;0.62;100.00;99703.44;5031041;28;20041;-73
2024/02/23 01:25:29;;;;;;;27.63;14.97;;;;;;;0.59;100.00;99708.84;4998496;28;20041;-72
2024/02/23 01:27:55;;;;;;;33.20;15.70;;;;;;;0.56;100.00;99703.81;5014459;28;20160;-72
2024/02/23 01:30:20;;;;;;;28.47;14.30;;;;;;;0.59;100.00;99704.47;5010564;28;20049;-73
2024/02/23 01:32:46;;;;;;;32.10;16.20;;;;;;;0.44;100.00;99700.19;5030821;28;20499;-73
2024/02/23 01:35:12;;;;;;;26.37;13.70;;;;;;;0.61;100.00;99704.38;4981919;28;20053;-73
2024/02/23 01:37:38;;;;;;;31.97;15.83;;;;;;;0.50;100.00;99705.03;5010377;28;20042;-72
2024/02/23 01:40:04;;;;;;;27.53;13.40;;;;;;;0.66;100.00;99705.75;5014415;28;20191;-72
2024/02/23 01:42:30;;;;;;;32.10;15.60;;;;;;;0.60;100.00;99700.09;5011218;28;20049;-75
2024/02/23 01:44:56;;;;;;;25.37;13.33;;;;;;;0.69;100.00;99700.34;4997871;28;20144;-74
2024/02/23 01:47:25;;;;;;;28.07;14.67;;;;;;;0.74;100.00;99706.13;4980377;28;20077;-75
2024/02/23 01:49:51;;;;;;;23.93;12.60;;;;;;;0.79;100.00;99703.22;4980925;28;20045;-75
2024/02/23 01:52:17;;;;;;;25.70;14.00;;;;;;;0.76;100.00;99704.28;4980510;28;20079;-74
2024/02/23 01:54:44;;;;;;;28.97;15.07;;;;;;;0.77;100.00;99715.59;4996507;28;20061;-74
2024/02/23 01:57:10;;;;;;;28.90;13.90;;;;;;;0.72;100.00;99712.41;5029519;28;20064;-74
2024/02/23 01:59:38;;;;;;;27.20;13.40;;;;;;;0.77;100.00;99719.00;5028566;28;20048;-74
2024/02/23 02:02:05;;;;;;;26.23;13.47;;;;;;;0.75;100.00;99714.81;5018581;28;20566;-75
2024/02/23 02:04:31;;;;;;;27.00;14.17;;;;;;;0.82;100.00;99716.13;5036995;28;20132;-74
2024/02/23 02:06:59;;;;;;;26.80;13.23;;;;;;;0.94;100.00;99713.56;5033290;28;20203;-75
2024/02/23 02:09:25;;;;;;;29.13;15.10;;;;;;;0.93;100.00;99709.28;5000079;28;20051;-75
2024/02/23 02:11:51;;;;;;;28.43;14.47;;;;;;;0.88;100.00;99718.34;5016263;28;20037;-75
2024/02/23 02:14:18;;;;;;;32.40;16.67;;;;;;;0.78;100.00;99714.63;5015749;28;20048;-75
2024/02/23 02:16:44;;;;;;;29.93;15.90;;;;;;;0.74;100.00;99713.97;4983567;28;20053;-73
2024/02/23 02:19:11;;;;;;;29.77;14.87;;;;;;;0.73;100.00;99711.47;4984409;28;20053;-74
2024/02/23 02:21:37;;;;;;;32.23;16.07;;;;;;;0.72;100.00;99715.88;5018349;28;20037;-72
2024/02/23 02:24:04;;;;;;;28.57;14.43;;;;;;;0.80;100.00;99718.00;5001734;28;20456;-74
2024/02/23 02:26:32;;;;;;;24.87;13.53;;;;;;;0.78;100.00;99718.09;5020156;28;20081;-75
2024/02/23 02:28:59;;;;;;;27.90;14.57;;;;;;;0.78;100.00;99718.09;5035752;28;20136;-72
2024/02/23 02:31:25;;;;;;;28.10;13.77;;;;;;;0.82;100.00;99721.34;5019421;28;20055;-72
2024/02/23 02:33:52;;;;;;;27.23;13.50;;;;;;;0.83;100.00;99729.09;5036099;28;20132;-72
2024/02/23 02:36:18;;;;;;;27.00;13.80;;;;;;;0.82;100.00;99730.03;5003360;28;20126;-75
2024/02/23 02:38:43;;;;;;;28.50;14.47;;;;;;;0.81;100.00;99732.75;5019637;28;20057;-74
2024/02/23 02:41:09;;;;;;;25.23;13.10;;;;;;;0.85;100.00;99726.38;5003200;28;20040;-76
2024/02/23 02:43:36;;;;;;;30.83;14.47;;;;;;;0.82;100.00;99735.25;5036616;28;20084;-75
2024/02/23 02:46:02;;;;;;;31.20;15.67;;;;;;;0.79;100.00;99727.63;5053070;28;20550;-74
2024/02/23 02:48:28;;;;;;;28.77;14.33;;;;;;;0.84;100.00;99719.47;4987075;28;20568;-75
2024/02/23 02:50:56;;;;;;;29.03;14.57;;;;;;;0.87;100.00;99722.75;5003213;28;20059;-76
2024/02/23 02:53:22;;;;;;;34.87;15.90;;;;;;;0.78;100.00;99719.88;5019067;28;20065;-76
2024/02/23 02:55:49;;;;;;;30.43;14.67;;;;;;;0.75;100.00;99722.66;5019505;28;20036;-76
2024/02/23 02:58:15;;;;;;;33.73;15.97;;;;;;;0.72;100.00;99733.31;4999761;28;20054;-76
2024/02/23 03:00:42;;;;;;;38.40;18.03;;;;;;;0.75;100.00;99730.50;4996054;28;20053;-75
2024/02/23 03:03:08;;;;;;;36.23;14.93;;;;;;;0.68;100.00;99734.41;4996581;28;20100;-76
2024/02/23 03:05:34;;;;;;;33.40;15.67;;;;;;;0.63;100.00;99731.28;4996391;28;20085;-76
2024/02/23 03:08:00;;;;;;;31.57;15.27;;;;;;;0.68;100.00;99755.31;4995940;28;20046;-76
2024/02/23 03:10:26;;;;;;;31.97;14.40;;;;;;;0.66;100.00;99749.38;5012571;28;20573;-76
2024/02/23 03:12:52;;;;;;;34.40;15.33;;;;;;;0.62;100.00;99750.47;4979847;28;20065;-76
2024/02/23 03:15:18;;;;;;;33.77;14.97;;;;;;;0.65;100.00;99751.13;4979673;28;20531;-75
2024/02/23 03:17:44;;;;;;;31.37;15.00;;;;;;;0.63;100.00;99747.75;4980815;28;20081;-76
2024/02/23 03:20:11;;;;;;;35.13;15.73;;;;;;;0.68;100.00;99753.56;4965560;28;20042;-75
2024/02/23 03:22:37;;;;;;;32.37;14.17;;;;;;;0.65;100.00;99756.38;4987055;28;20081;-75
2024/02/23 03:25:08;;;;;;;35.03;16.40;;;;;;;0.61;100.00;99751.41;4979820;28;20479;-75
2024/02/23 03:27:36;;;;;;;33.93;15.27;;;;;;;0.67;100.00;99744.06;4963785;28;20045;-74
2024/02/23 03:30:05;;;;;;;33.47;16.43;;;;;;;0.66;100.00;99752.00;4979396;28;20050;-75
2024/02/23 03:32:36;;;;;;;35.13;16.70;;;;;;;0.61;100.00;99759.25;4995358;28;20054;-75
2024/02/23 03:35:06;;;;;;;32.00;14.27;;;;;;;0.76;100.00;99755.69;4988263;28;20871;-75
2024/02/23 03:37:32;;;;;;;34.00;14.93;;;;;;;0.66;100.00;99768.50;5018728;28;20051;-75
2024/02/23 03:39:59;;;;;;;28.97;13.87;;;;;;;0.71;100.00;99755.16;5020024;28;20041;-74
2024/02/23 03:42:26;;;;;;;31.53;14.77;;;;;;;0.65;100.00;99752.91;5036151;28;20422;-74
2024/02/23 03:44:53;;;;;;;39.87;16.37;;;;;;;0.65;100.00;99755.50;5002614;28;20049;-75
2024/02/23 03:47:20;;;;;;;31.20;14.67;;;;;;;0.65;100.00;99766.81;5002596;28;20152;-71
2024/02/23 03:49:46;;;;;;;41.00;17.47;;;;;;;0.66;100.00;99760.66;5001769;28;20143;-71
2024/02/23 03:52:12;;;;;;;37.77;16.63;;;;;;;0.64;100.00;99751.22;5016614;28;20148;-70
2024/02/23 03:54:38;;;;;;;33.67;15.90;;;;;;;0.65;100.00;99747.66;5002050;28;20139;-71
2024/02/23 03:57:04;;;;;;;36.60;15.10;;;;;;;0.66;100.00;99765.88;5035315;28;20040;-72
2024/02/23 03:59:30;;;;;;;29.77;13.90;;;;;;;0.71;100.00;99755.97;5051346;28;20045;-72
2024/02/23 04:01:56;;;;;;;37.90;15.70;;;;;;;0.65;100.00;99756.38;5018023;28;20083;-73
2024/02/23 04:04:22;;;;;;;34.97;15.50;;;;;;;0.69;100.00;99770.09;5015564;28;20071;-74
2024/02/23 04:06:49;;;;;;;31.83;14.57;;;;;;;0.68;100.00;99776.22;5015826;28;20124;-73
2024/02/23 04:09:16;;;;;;;32.10;14.60;;;;;;;0.73;100.00;99775.03;5000997;28;20041;-73
2024/02/23 04:11:43;;;;;;;38.97;16.10;;;;;;;0.72;100.00;99757.69;5034573;28;20502;-73
2024/02/23 04:14:10;;;;;;;36.23;16.10;;;;;;;0.67;100.00;99756.28;5000105;28;20056;-73
2024/02/23 04:16:37;;;;;;;44.10;18.07;;;;;;;0.57;100.00;99753.38;5015621;28;20457;-72
2024/02/23 04:19:04;;;;;;;33.87;14.70;;;;;;;0.66;100.00;99757.22;5015795;28;20064;-73
2024/02/23 04:21:30;;;;;;;38.77;17.43;;;;;;;0.61;100.00;99751.41;5026712;28;20065;-73
2024/02/23 04:23:59;;;;;;;35.60;15.97;;;;;;;0.67;100.00;99749.28;4999041;28;20510;-73
2024/02/23 04:26:25;;;;;;;37.93;15.90;;;;;;;0.70;100.00;99749.09;5031904;28;20045;-72
2024/02/23 04:28:53;;;;;;;32.77;15.17;;;;;;;0.73;100.00;99729.75;5010726;28;20101;-72
2024/02/23 04:31:19;;;;;;;42.13;17.00;;;;;;;0.69;100.00;99749.19;4994335;28;20064;-72
2024/02/23 04:33:45;;;;;;;38.77;16.70;;;;;;;0.66;100.00;99728.47;4978341;28;20049;-73
2024/02/23 04:36:10;;;;;;;36.07;15.70;;;;;;;0.74;100.00;99741.91;4994483;28;20072;-72
2024/02/23 04:38:37;;;;;;;35.77;14.53;;;;;;;0.82;100.00;99750.09;4978441;28;20224;-71
2024/02/23 04:41:05;;;;;;;37.97;16.83;;;;;;;0.89;100.00;99751.41;4994239;28;20049;-70
2024/02/23 04:43:32;;;;;;;37.43;15.80;;;;;;;0.80;100.00;99759.81;5010834;28;20061;-70
2024/02/23 04:45:58;;;;;;;34.63;15.73;;;;;;;0.80;100.00;99767.66;4994018;28;20037;-71
2024/02/23 04:48:24;;;;;;;36.00;15.97;;;;;;;0.77;100.00;99757.41;4994758;28;20054;-72
2024/02/23 04:50:50;;;;;;;33.63;16.10;;;;;;;0.75;100.00;99767.09;4980103;28;20119;-73
2024/02/23 04:53:19;;;;;;;38.37;16.40;;;;;;;0.72;100.00;99759.44;4999736;28;20484;-73
2024/02/23 04:55:45;;;;;;;35.77;16.17;;;;;;;0.78;100.00;99772.16;4985498;28;20048;-73
2024/02/23 04:58:11;;;;;;;37.27;15.80;;;;;;;0.79;100.00;99774.66;4998860;28;20050;-72
2024/02/23 05:00:37;;;;;;;37.53;17.43;;;;;;;0.76;100.00;99776.63;4997438;28;20049;-73
2024/02/23 05:03:04;;;;;;;36.10;15.30;;;;;;;0.80;100.00;99785.97;5033590;28;20119;-74
2024/02/23 05:05:30;;;;;;;32.07;14.50;;;;;;;0.82;100.00;99778.84;5013953;28;20143;-74
2024/02/23 05:07:56;;;;;;;41.30;16.50;;;;;;;0.73;100.00;99777.66;5013620;28;20063;-75
2024/02/23 05:10:22;;;;;;;40.60;16.43;;;;;;;0.76;100.00;99779.22;4997185;28;20055;-72
2024/02/23 05:12:49;;;;;;;32.37;14.40;;;;;;;0.87;100.00;99777.66;5013459;28;20408;-68
2024/02/23 05:15:15;;;;;;;37.20;15.53;;;;;;;0.82;100.00;99777.09;5030173;28;20061;-68
2024/02/23 05:17:42;;;;;;;32.03;14.63;;;;;;;0.84;100.00;99787.44;5000588;28;20444;-68
2024/02/23 05:20:10;;;;;;;34.53;14.63;;;;;;;0.93;100.00;99797.34;5013158;28;20053;-69
2024/02/23 05:22:38;;;;;;;32.57;13.80;;;;;;;0.94;100.00;99799.84;4997006;28;20049;-69
2024/02/23 05:25:04;;;;;;;37.67;17.10;;;;;;;0.76;100.00;99793.16;4997005;28;20034;-70
2024/02/23 05:27:31;;;;;;;33.90;15.63;;;;;;;0.76;100.00;99787.06;4996763;28;20037;-70
2024/02/23 05:29:57;;;;;;;33.13;14.73;;;;;;;0.78;100.00;99783.44;4980425;28;20453;-70
2024/02/23 05:32:24;;;;;;;38.10;18.10;;;;;;;0.69;100.00;99811.91;4997024;28;20152;-72
2024/02/23 05:34:52;;;;;;;38.37;15.97;;;;;;;0.75;100.00;99796.72;5013597;28;20203;-71
2024/02/23 05:37:19;;;;;;;36.67;15.60;;;;;;;0.75;100.00;99786.25;4981040;28;20080;-70
2024/02/23 05:39:46;;;;;;;39.40;16.00;;;;;;;0.79;100.00;99792.13;4996945;28;20115;-70
2024/02/23 05:42:15;;;;;;;30.95;14.75;;;;;;;0.82;100.00;99805.00;5017404;28;20202;-67
2024/02/23 05:44:44;;;;;;;32.73;14.97;;;;;;;0.93;100.00;99816.50;5032957;28;20429;-67
2024/02/23 05:47:10;;;;;;;38.23;17.57;;;;;;;0.73;100.00;99802.94;5007404;28;20388;-68
2024/02/23 05:49:36;;;;;;;40.53;18.80;;;;;;;0.69;100.00;99809.28;4999896;28;20462;-67
2024/02/23 05:52:03;;;;;;;40.10;17.53;;;;;;;0.69;100.00;99810.13;5015964;28;20045;-67
2024/02/23 05:54:30;;;;;;;37.43;16.43;;;;;;;0.73;100.00;99811.63;4999820;28;20063;-68
2024/02/23 05:56:56;;;;;;;34.93;16.47;;;;;;;0.67;100.00;99785.88;5016758;28;20048;-68
2024/02/23 05:59:22;;;;;;;34.40;16.77;;;;;;;0.78;100.00;99798.28;4983598;28;20048;-68
2024/02/23 06:01:47;;;;;;;35.80;16.90;;;;;;;0.84;100.00;99796.16;5013101;28;20044;-68
2024/02/23 06:04:13;;;;;;;37.57;17.17;;;;;;;0.82;100.00;99799.75;4996101;28;20143;-67
2024/02/23 06:06:44;;;;;;;37.53;17.73;;;;;;;0.79;100.00;99807.78;5028980;28;20130;-68
2024/02/23 06:09:10;;;;;;;35.70;17.30;;;;;;;0.73;100.00;99808.16;4996696;28;20565;-67
2024/02/23 06:11:36;;;;;;;46.93;19.40;;;;;;;0.69;100.00;99824.97;4980786;28;20360;-68
2024/02/23 06:14:02;;;;;;;38.93;17.73;;;;;;;0.73;100.00;99821.22;5012997;28;20537;-69
2024/02/23 06:16:34;;;;;;;34.40;16.60;;;;;;;0.77;100.00;99818.34;5019246;28;20053;-68
2024/02/23 06:19:00;;;;;;;38.27;16.47;;;;;;;0.73;100.00;99831.69;5019229;28;20055;-68
2024/02/23 06:21:26;;;;;;;38.20;17.73;;;;;;;0.75;100.00;99824.59;5017590;28;20045;-68
2024/02/23 06:23:56;;;;;;;39.27;17.33;;;;;;;0.90;100.00;99821.91;5000771;28;20048;-68
2024/02/23 06:26:26;;;;;;;40.90;17.50;;;;;;;0.84;100.00;99813.59;5000020;28;20049;-69
2024/02/23 06:29:01;;;;;;;33.33;16.17;;;;;;;0.90;100.00;99814.06;5018765;28;20395;-68
2024/02/23 06:31:34;;;;;;;41.77;18.13;;;;;;;0.91;100.00;99826.19;4998230;28;20057;-68
2024/02/23 06:34:03;;;;;;;41.10;16.77;;;;;;;0.92;100.00;99824.44;5015827;28;20060;-68
2024/02/23 06:36:31;;;;;;;38.28;17.25;;;;;;;0.96;100.00;99832.00;5016435;28;20201;-68
2024/02/23 06:38:59;;;;;;;40.30;16.53;;;;;;;0.98;100.00;99831.91;4993286;28;20119;-68
2024/02/23 06:41:24;;;;;;;37.70;16.30;;;;;;;0.99;100.00;99842.25;4944784;28;20053;-68
2024/02/23 06:43:52;;;;;;;31.90;15.10;;;;;;;1.12;100.00;99832.72;4957389;28;20102;-68
2024/02/23 06:46:29;;;;;;;36.07;15.53;;;;;;;1.30;100.00;99838.59;4973595;28;20050;-68
2024/02/23 06:48:55;;;;;;;41.20;17.77;;;;;;;1.00;100.00;99841.31;4973430;28;20034;-69
2024/02/23 06:51:21;;;;;;;32.90;16.20;;;;;;;1.11;100.00;99830.19;4973721;28;20058;-68
2024/02/23 06:53:47;;;;;;;36.03;15.93;;;;;;;1.28;100.00;99828.22;4973229;28;20042;-69
2024/02/23 06:56:14;;;;;;;29.47;13.40;;;;;;;1.42;100.00;99832.59;4973302;28;20046;-68
2024/02/23 06:58:40;;;;;;;31.67;15.20;;;;;;;1.39;100.00;99825.78;4973298;28;20080;-68
2024/02/23 07:01:12;;;;;;;34.67;14.10;;;;;;;1.52;100.00;99833.72;4973306;28;20516;-68
2024/02/23 07:03:42;;;;;;;33.57;13.90;;;;;;;1.52;100.00;99847.63;5022186;28;20145;-68
2024/02/23 07:06:13;;;;;;;28.77;14.40;;;;;;;1.50;100.00;99846.91;4969202;28;20055;-68
2024/02/23 07:08:38;;;;;;;29.13;14.73;;;;;;;1.45;100.00;99858.56;4970939;28;20095;-68
2024/02/23 07:11:06;;;;;;;30.17;13.60;;;;;;;1.39;100.00;99878.13;4938467;28;20098;-69
2024/02/23 07:13:32;;;;;;;27.20;13.33;;;;;;;1.34;100.00;99854.00;4940600;28;20054;-69
2024/02/23 07:16:02;;;;;;;30.67;14.60;;;;;;;1.33;100.00;99860.19;4932661;28;20054;-68
2024/02/23 07:18:28;;;;;;;29.75;14.18;;;;;;;1.33;100.00;99854.97;4977037;28;20115;-68
2024/02/23 07:20:56;;;;;;;27.17;13.47;;;;;;;1.43;100.00;99857.84;4944745;28;20054;-68
2024/02/23 07:23:22;;;;;;;26.13;13.20;;;;;;;1.41;100.00;99875.41;4976433;28;20239;-68
2024/02/23 07:25:50;;;;;;;29.57;14.77;;;;;;;1.43;100.00;99863.09;4960434;28;20046;-68
2024/02/23 07:28:19;;;;;;;27.13;14.10;;;;;;;1.33;100.00;99865.44;4960634;28;20043;-69
2024/02/23 07:30:48;;;;;;;29.25;14.50;;;;;;;1.33;100.00;99865.44;4959967;28;20113;-68
2024/02/23 07:33:18;;;;;;;32.87;14.60;;;;;;;1.35;100.00;99853.06;4991471;28;20072;-68
2024/02/23 07:35:47;;;;;;;28.60;14.50;;;;;;;1.27;100.00;99857.97;5012090;28;20049;-68
2024/02/23 07:38:14;;;;;;;31.77;13.50;;;;;;;1.25;100.00;99851.97;4963165;28;20057;-69
2024/02/23 07:40:46;;;;;;;27.73;13.23;;;;;;;1.31;100.00;99843.75;4979574;28;20128;-68
2024/02/23 07:43:13;;;;;;;32.60;14.40;;;;;;;1.36;100.00;99867.84;5006655;28;20057;-68
2024/02/23 07:45:42;;;;;;;29.57;13.87;;;;;;;1.45;100.00;99872.50;5016110;28;20048;-68
2024/02/23 07:48:08;;;;;;;32.40;14.33;;;;;;;1.40;100.00;99876.31;5016560;28;20057;-69
2024/02/23 07:50:34;;;;;;;26.27;13.13;;;;;;;1.42;100.00;99867.47;5016499;28;20041;-68
2024/02/23 07:53:00;;;;;;;25.30;12.33;;;;;;;1.58;100.00;99865.56;5016469;28;20045;-69
2024/02/23 07:55:26;;;;;;;25.10;12.87;;;;;;;1.67;100.00;99859.78;4999470;28;20045;-68
2024/02/23 07:58:01;;;;;;;25.33;12.30;;;;;;;1.80;100.00;99875.50;5000037;28;20048;-68
2024/02/23 08:00:34;;;;;;;28.97;12.73;;;;;;;1.77;100.00;99875.72;5032616;28;20137;-68
2024/02/23 08:03:03;;;;;;;29.10;13.57;;;;;;;1.63;100.00;99878.34;5028586;28;20045;-68
2024/02/23 08:05:29;;;;;;;33.17;13.80;;;;;;;1.55;100.00;99870.97;5015766;28;20045;-69
2024/02/23 08:07:59;;;;;;;26.93;12.47;;;;;;;1.65;100.00;99874.72;4979046;28;20472;-69
2024/02/23 08:10:25;;;;;;;28.03;13.10;;;;;;;1.63;100.00;99870.50;4979062;28;20485;-69
2024/02/23 08:12:51;;;;;;;22.00;11.73;;;;;;;1.69;100.00;99870.97;4975056;28;20143;-68
2024/02/23 08:15:18;;;;;;;26.27;11.80;;;;;;;1.77;100.00;99878.31;4942392;28;20085;-68
2024/02/23 08:17:46;;;;;;;23.67;11.33;;;;;;;1.84;100.00;99897.13;4991561;28;20544;-68
2024/02/23 08:20:12;;;;;;;22.00;11.83;;;;;;;1.90;100.00;99889.72;4943374;28;20188;-68
2024/02/23 08:22:38;;;;;;;21.33;11.33;;;;;;;1.92;100.00;99879.16;4944178;28;20141;-68
2024/02/23 08:25:05;;;;;;;24.03;11.90;;;;;;;2.02;100.00;99886.31;4934041;29;20060;-68
2024/02/23 08:27:35;;;;;;;23.80;11.97;;;;;;;2.06;100.00;99885.16;4917694;29;20052;-69
2024/02/23 08:30:13;;;;;;;25.27;12.17;;;;;;;2.09;100.00;99884.16;4956705;28;20055;-69
2024/02/23 08:32:50;;;;;;;23.13;12.07;;;;;;;2.04;100.00;99888.84;4936612;29;20059;-68
2024/02/23 08:35:21;;;;;;;24.83;12.13;;;;;;;1.93;100.00;99894.75;4936716;28;20053;-69
2024/02/23 08:37:52;;;;;;;27.27;12.53;;;;;;;1.83;100.00;99898.88;4940735;28;20057;-69
2024/02/23 08:40:26;;;;;;;23.43;12.40;;;;;;;1.88;100.00;99896.81;4952659;28;20398;-68
2024/02/23 08:43:01;;;;;;;27.30;11.85;;;;;;;1.90;100.00;99897.56;4984338;28;20070;-68
2024/02/23 08:45:53;;;;;;;23.57;11.83;;;;;;;1.88;100.00;99909.09;4917184;29;20075;-68
2024/02/23 08:48:26;;;;;;;23.25;11.57;;;;;;;1.95;100.00;99913.84;4917185;29;20110;-68
2024/02/23 08:50:55;;;;;;;23.20;11.57;;;;;;;1.96;100.00;99897.19;4913733;29;20059;-69
2024/02/23 08:53:25;;;;;;;22.50;11.55;;;;;;;2.02;100.00;99898.56;4916842;29;20114;-68
2024/02/23 08:55:54;;;;;;;20.33;10.80;;;;;;;2.05;100.00;99891.34;4932672;29;20161;-68
2024/02/23 08:58:23;;;;;;;22.13;11.30;;;;;;;2.08;100.00;99891.16;4916419;29;20059;-69
2024/02/23 09:00:49;;;;;;;21.60;11.40;;;;;;;2.16;100.00;99909.00;4916959;29;20044;-68
2024/02/23 09:03:15;;;;;;;21.40;10.90;;;;;;;2.22;100.00;99904.22;4932355;28;20454;-68
2024/02/23 09:05:41;;;;;;;23.03;12.07;;;;;;;2.17;100.00;99901.03;4916533;29;20083;-68
2024/02/23 09:08:14;;;;;;;25.50;12.47;;;;;;;2.30;100.00;99903.69;4879060;29;20048;-69
2024/02/23 09:10:43;;;;;;;23.93;12.33;;;;;;;2.34;100.00;99923.56;4894911;29;20052;-68
2024/02/23 09:13:11;;;;;;;26.30;12.97;;;;;;;2.40;100.00;99902.19;4894820;29;20164;-68
2024/02/23 09:15:39;;;;;;;22.70;12.33;;;;;;;2.50;100.00;99906.72;4894810;29;20071;-68
2024/02/23 09:18:06;;;;;;;20.33;10.37;;;;;;;2.50;100.00;99911.94;4863274;29;20187;-68
2024/02/23 09:20:35;;;;;;;23.07;11.63;;;;;;;2.52;100.00;99907.44;4894733;29;20059;-69
2024/02/23 09:23:04;;;;;;;27.15;12.35;;;;;;;2.53;100.00;99914.38;4851363;29;20152;-69
2024/02/23 09:25:31;;;;;;;19.53;11.10;;;;;;;2.50;100.00;99911.94;4851670;29;20062;-68
2024/02/23 09:27:58;;;;;;;24.53;12.40;;;;;;;2.57;100.00;99913.22;4878298;29;20143;-68
2024/02/23 09:30:24;;;;;;;23.17;12.47;;;;;;;2.55;100.00;99914.28;4891471;29;20060;-68
2024/02/23 09:32:54;;;;;;;26.97;12.83;;;;;;;2.59;100.00;99903.47;4897329;29;20051;-68
2024/02/23 09:35:23;;;;;;;19.93;11.30;;;;;;;2.63;100.00;99904.94;4866240;29;20056;-68
2024/02/23 09:37:49;;;;;;;24.97;13.57;;;;;;;2.59;100.00;99911.34;4899526;29;20425;-68
2024/02/23 09:40:16;;;;;;;27.40;14.47;;;;;;;2.56;100.00;99935.16;4885586;29;20051;-68
2024/02/23 09:42:42;;;;;;;26.30;12.83;;;;;;;2.62;100.00;99926.88;4916355;29;20098;-68
2024/02/23 09:45:08;;;;;;;26.87;13.37;;;;;;;2.53;100.00;99922.25;4916723;29;20056;-69
2024/02/23 09:47:34;;;;;;;28.13;12.27;;;;;;;2.58;100.00;99927.19;4886000;28;20047;-68
2024/02/23 09:50:04;;;;;;;25.93;13.13;;;;;;;2.70;100.00;99919.34;4920046;28;20050;-68
2024/02/23 09:52:32;;;;;;;24.07;12.83;;;;;;;2.71;100.00;99912.28;4935976;28;20063;-68
2024/02/23 09:55:00;;;;;;;27.13;12.87;;;;;;;2.84;100.00;99910.56;5023396;28;20049;-68
2024/02/23 09:57:28;;;;;;;28.00;13.50;;;;;;;2.79;100.00;99923.97;5016226;28;20127;-68
2024/02/23 09:59:56;;;;;;;25.53;12.23;;;;;;;2.88;100.00;99914.63;4976910;28;20444;-68
2024/02/23 10:02:31;;;;;;;23.97;12.73;;;;;;;2.96;100.00;99920.22;4993626;28;20136;-68
2024/02/23 10:05:06;;;;;;;27.27;13.07;;;;;;;2.92;100.00;99919.56;5009755;28;20380;-69
2024/02/23 10:07:36;;;;;;;24.60;13.00;;;;;;;2.92;100.00;99910.88;4977853;28;20072;-69
2024/02/23 10:10:10;;;;;;;28.20;13.00;;;;;;;2.91;100.00;99924.91;4977678;28;20076;-68
2024/02/23 10:12:37;;;;;;;26.53;12.57;;;;;;;2.94;100.00;99922.94;4961498;28;20619;-68
2024/02/23 10:15:13;;;;;;;29.50;14.70;;;;;;;2.95;100.00;99921.97;4900211;29;20061;-69
2024/02/23 10:17:48;;;;;;;24.60;12.87;;;;;;;2.98;100.00;99920.97;4900077;29;20356;-68
2024/02/23 10:20:20;;;;;;;25.27;12.50;;;;;;;3.13;100.00;99912.03;4916095;29;20051;-68
2024/02/23 10:22:58;;;;;;;26.23;13.47;;;;;;;3.13;100.00;99917.28;4917774;29;20051;-68
2024/02/23 10:25:27;;;;;;;29.67;14.43;;;;;;;3.12;100.00;99923.50;4869982;29;20060;-67
2024/02/23 10:28:06;;;;;;;27.07;13.63;;;;;;;3.23;100.00;99934.06;4894699;29;20056;-67
2024/02/23 10:30:34;;;;;;;30.77;14.90;;;;;;;3.17;100.00;99916.97;4854574;29;20055;-68
2024/02/23 10:33:07;;;;;;;29.60;14.37;;;;;;;3.18;100.00;99923.06;4860154;29;20060;-68
2024/02/23 10:35:40;;;;;;;25.37;13.00;;;;;;;3.26;100.00;99924.22;4856883;29;20173;-68
2024/02/23 10:38:12;;;;;;;29.07;13.60;;;;;;;3.26;100.00;99932.09;4835080;29;20122;-68
2024/02/23 10:40:50;;;;;;;24.70;12.03;;;;;;;3.34;100.00;99924.53;4823106;29;20120;-68
2024/02/23 10:43:28;;;;;;;27.90;13.43;;;;;;;3.43;100.00;99937.03;4822056;29;20060;-68
2024/02/23 10:46:03;;;;;;;27.87;12.60;;;;;;;3.41;100.00;99967.78;4848584;29;20068;-68
2024/02/23 10:48:30;;;;;;;26.87;12.67;;;;;;;3.43;100.00;99942.25;4874249;29;20076;-68
2024/02/23 10:50:59;;;;;;;26.63;12.67;;;;;;;3.44;100.00;99930.81;4860089;29;20077;-68
2024/02/23 10:53:27;;;;;;;28.90;14.53;;;;;;;3.40;100.00;99941.63;4859943;29;20053;-68
2024/02/23 10:56:05;;;;;;;23.07;12.47;;;;;;;3.49;100.00;99941.84;4845457;29;20056;-68
2024/02/23 10:58:34;;;;;;;30.67;14.13;;;;;;;3.30;100.00;99948.47;4863784;29;20049;-68
2024/02/23 11:01:08;;;;;;;31.87;14.90;;;;;;;3.33;100.00;99949.13;4863453;29;20053;-69
2024/02/23 11:03:37;;;;;;;32.17;13.60;;;;;;;3.37;100.00;99954.97;4900533;29;20056;-68
2024/02/23 11:06:05;;;;;;;27.17;12.73;;;;;;;3.34;100.00;99949.94;4840617;29;20104;-68
2024/02/23 11:08:36;;;;;;;27.73;13.43;;;;;;;3.40;100.00;99958.22;4875240;29;20054;-68
2024/02/23 11:11:11;;;;;;;;;;;;;;;3.54;100.00;99972.22;4875652;29;20143;-67
2024/02/23 11:13:38;;;;;;;29.60;13.93;;;;;;;3.40;100.00;99954.75;4904219;29;19923;-68
2024/02/23 11:16:12;;;;;;;30.23;14.17;;;;;;;3.35;100.00;99952.44;4914807;29;20135;-69
2024/02/23 11:18:40;;;;;;;29.77;13.43;;;;;;;3.45;100.00;99952.66;4906048;28;20051;-68